Flight Track Log - Related Links

Times and Time Zones

All times are in EST time to prevent confusion due to time zone crossing. See the QXE2340 flight status page for this flight to view local times or setup timezone preferences in your user account.

Time Position Orientation Groundspeed Altitude Reporting Facility
EST Latitude Longitude Course Direction KTS MPH feet Rate Location/Type
Thu 01:35:00 AM 47.4201 -121.3987 92° East  Level Estimated
Thu 01:36:00 AM 47.4152 -121.2684 93° East  Level Estimated
Thu 01:37:00 AM 47.4102 -121.1380 93° East  Level Estimated
Thu 01:38:00 AM 47.4051 -121.0077 93° East  Level Estimated
Thu 01:39:00 AM 47.3998 -120.8775 93° East  Level Estimated
Thu 01:40:00 AM 47.3943 -120.7472 93° East  Level Estimated
Thu 01:41:00 AM 47.3887 -120.6170 94° East  Level Estimated
Thu 01:42:00 AM 47.3830 -120.4868 94° East  Level Estimated
Thu 01:43:00 AM 47.3771 -120.3567 94° East  Level Estimated
Thu 01:44:00 AM 47.3711 -120.2265 94° East  Level Estimated
Thu 01:45:00 AM 47.3649 -120.0964 94° East  Level Estimated
Thu 01:46:00 AM 47.3586 -119.9663 94° East  Level Estimated
Thu 01:47:00 AM 47.3521 -119.8363 94° East  Level Estimated
Thu 01:48:00 AM 47.3455 -119.7063 94° East  Level Estimated
Thu 01:49:00 AM 47.3387 -119.5763 94° East  Level Estimated
Thu 01:50:00 AM 47.3318 -119.4464 94° East  Level Estimated
Thu 01:51:00 AM 47.3248 -119.3165 95° East  Level Estimated
Thu 01:52:00 AM 47.3176 -119.1866 95° East  Level Estimated
Thu 01:53:00 AM 47.3102 -119.0568 95° East  Level Estimated
Thu 01:54:00 AM 47.3027 -118.9270 95° East  Level Estimated
Thu 01:55:00 AM 47.2951 -118.7972 95° East  Level Estimated
Thu 01:56:00 AM 47.2872 -118.6664 95° East  Level Estimated
Thu 01:57:00 AM 47.2792 -118.5356 95° East  Level Estimated
Thu 01:58:00 AM 47.2710 -118.4049 95° East  Level Estimated
Thu 01:59:00 AM 47.2630 -118.2779 95° East  Level Estimated
Thu 02:00:00 AM 47.2547 -118.1510 95° East  Level Estimated
Thu 02:01:00 AM 47.2464 -118.0241 95° East  Level Estimated
Thu 02:02:00 AM 47.2379 -117.8973 96° East  Level Estimated
Thu 02:03:00 AM 47.2293 -117.7705 96° East  Level Estimated
Thu 02:04:00 AM 47.2205 -117.6438 96° East  Level Estimated
Thu 02:05:00 AM 47.2116 -117.5170 96° East  Level Estimated
Thu 02:06:00 AM 47.2025 -117.3904 96° East  Level Estimated
Thu 02:07:00 AM 47.1934 -117.2637 96° East  Level Estimated
Thu 02:08:00 AM 47.1841 -117.1372 96° East  Level Estimated
Thu 02:09:00 AM 47.1746 -117.0106 96° East  Level Estimated
Thu 02:10:00 AM 47.1650 -116.8841 96° East  Level Estimated
Thu 02:11:00 AM 47.1553 -116.7577 96° East  Level Estimated
Thu 02:12:00 AM 47.1452 -116.6287 97° East  Level Estimated
Thu 02:13:00 AM 47.1349 -116.4990 97° East  Level Estimated
Thu 02:14:00 AM 47.1244 -116.3693 97° East  Level Estimated
Thu 02:15:00 AM 47.1138 -116.2397 97° East  Level Estimated
Thu 02:16:00 AM 47.1031 -116.1101 97° East  Level Estimated
Thu 02:17:00 AM 47.0921 -115.9788 97° East  Level Estimated
Thu 02:18:00 AM 47.0809 -115.8475 97° East  Level Estimated
Thu 02:19:00 AM 47.0696 -115.7163 97° East  Level Estimated
Thu 02:20:00 AM 47.0581 -115.5847 97° East  Level Estimated
Thu 02:21:00 AM 47.0464 -115.4533 97° East  Level Estimated
Thu 02:22:00 AM 47.0346 -115.3221 97° East  Level Estimated
Thu 02:23:00 AM 47.0227 -115.1907 98° East  Level Estimated
Thu 02:24:00 AM 47.0105 -115.0593 98° East  Level Estimated
Thu 02:25:00 AM 46.9983 -114.9280 98° East  Level Estimated
Thu 02:26:00 AM 46.9858 -114.7968 98° East  Level Estimated
Thu 02:27:00 AM 46.9733 -114.6656 98° East  Level Estimated
Thu 02:28:00 AM 46.9605 -114.5345 98° East  Level Estimated
Thu 02:29:00 AM 46.9477 -114.4035 98° East  Level Estimated
Thu 02:30:00 AM 46.9347 -114.2725 98° East  Level Estimated
Thu 02:31:00 AM 46.9215 -114.1415 98° East  Level Estimated
Thu 02:32:00 AM 46.9163 -114.0906 98° East  Level Estimated
Thu 02:33:00 AM 46.9163 -114.0906 146° Southeast  Level Estimated
Thu 02:34:00 AM 46.9163 -114.0906 146° Southeast  Level Estimated
Thu 02:35:00 AM 46.9163 -114.0906 146° Southeast  Level Estimated
Thu 02:36:00 AM 46.9163 -114.0906 146° Southeast  Level Estimated
Thu 02:37:00 AM 46.9163 -114.0906 146° Southeast  Level Estimated
Thu 02:38:00 AM 46.9163 -114.0906 146° Southeast  Level Estimated
Thu 02:39:00 AM 46.9163 -114.0906 146° Southeast  Level Estimated
Thu 02:40:00 AM 46.9163 -114.0906 146° Southeast  Level Estimated
Thu 02:41:00 AM 46.9163 -114.0906 146° Southeast  Level Estimated
Thu 02:42:00 AM 46.9163 -114.0906 146° Southeast  Level Estimated
Thu 02:43:00 AM 46.9163 -114.0906 146° Southeast  Level Estimated
Thu 02:44:00 AM 46.9163 -114.0906 146° Southeast  Level Estimated

Login

Don't have an account? Register now (free) for customized features, flight alerts, and more!